WetterOnline ( https://www.wetteronline.de )

Wetter aktuell Rubihorn

Aktuelles Wetter: Oberstdorf (812m)

6-stündlich | Neueste Meldungen
Ortszeit Temperatur Wetter
Fr, 07.10. 2:00 9.1° C wolkig
Do, 06.10. 20:00 13.1° C wolkig
Do, 06.10. 14:00 19.5° C wolkenlos
Do, 06.10. 8:00 5.2° C wolkenlos
Do, 06.10. 2:00 6.2° C leicht bewölkt
Mi, 05.10. 20:00 11.3° C leicht bewölkt
Mi, 05.10. 14:00 21.8° C leicht bewölkt
Mi, 05.10. 8:00 2.6° C wolkenlos
Ortszeit Temperatur Wetter
Fr, 07.10. 7:30 7.2° C bedeckt
Fr, 07.10. 7:20 7.2° C bedeckt
Fr, 07.10. 7:10 7.7° C bedeckt
Fr, 07.10. 7:00 7.4° C bedeckt
Fr, 07.10. 6:50 7.4° C bedeckt
Fr, 07.10. 6:40 7.4° C bedeckt
Fr, 07.10. 6:30 7.3° C bewölkt
Fr, 07.10. 6:00 7.9° C bedeckt
Fr, 07.10. 5:30 8.8° C bedeckt
Fr, 07.10. 5:00 9.0° C bedeckt
Fr, 07.10. 4:30 8.9° C bedeckt
Ortszeit Relative Feuchte Sichtweite
Fr, 07.10. 2:00 95% 35 km
Do, 06.10. 20:00 89% 50 km
Do, 06.10. 14:00 54% 65 km
Do, 06.10. 8:00 97% >70 km
Do, 06.10. 2:00 88% >70 km
Mi, 05.10. 20:00 80% >70 km
Mi, 05.10. 14:00 33% 50 km
Mi, 05.10. 8:00 94% >70 km
Ortszeit Relative Feuchte Sichtweite
Fr, 07.10. 7:30 94% 40 km
Fr, 07.10. 7:20 94% -
Fr, 07.10. 7:10 95% -
Fr, 07.10. 7:00 95% 35 km
Fr, 07.10. 6:50 95% -
Fr, 07.10. 6:40 95% -
Fr, 07.10. 6:30 95% 30 km
Fr, 07.10. 6:00 94% 35 km
Fr, 07.10. 5:30 94% 35 km
Fr, 07.10. 5:00 94% 40 km
Fr, 07.10. 4:30 95% 45 km
Ortszeit Niederschlagsmenge Niederschlagsart
Fr, 07.10. 2:00 0.0 l/m2 in 6 Std. -
Do, 06.10. 20:00 0.0 l/m2 in 12 Std. -
Do, 06.10. 14:00 0.0 l/m2 in 6 Std. -
Do, 06.10. 8:00 0.0 l/m2 in 12 Std. -
Do, 06.10. 2:00 0.0 l/m2 in 6 Std. -
Mi, 05.10. 20:00 0.0 l/m2 in 12 Std. -
Mi, 05.10. 14:00 0.0 l/m2 in 6 Std. -
Mi, 05.10. 8:00 0.0 l/m2 in 12 Std. -
Ortszeit Niederschlagsmenge Niederschlagsart
Fr, 07.10. 7:30 0.0 l/m2 in 1 Std. -
Fr, 07.10. 7:20 keine Meldung -
Fr, 07.10. 7:10 keine Meldung -
Fr, 07.10. 7:00 0.0 l/m2 in 1 Std. -
Fr, 07.10. 6:50 keine Meldung -
Fr, 07.10. 6:40 keine Meldung -
Fr, 07.10. 6:30 0.0 l/m2 in 1 Std. -
Fr, 07.10. 6:00 0.0 l/m2 in 1 Std. -
Fr, 07.10. 5:30 0.0 l/m2 in 1 Std. -
Fr, 07.10. 5:00 0.0 l/m2 in 1 Std. -
Fr, 07.10. 4:30 0.0 l/m2 in 1 Std. -
Ortszeit Stärke Spitze Richtung
km/h Bft. km/h Grad Sektor
Fr, 07.10. 2:00 7 2 14 160° S
Do, 06.10. 20:00 4 1 32 160° S
Do, 06.10. 14:00 17 3 28 350° N
Do, 06.10. 8:00 6 1 15 180° S
Do, 06.10. 2:00 4 1 18 140° SO
Mi, 05.10. 20:00 13 3 22 190° S
Mi, 05.10. 14:00 4 1 11 330° NW
Mi, 05.10. 8:00 4 1 11 180° S
Ortszeit Stärke Spitze Richtung
km/h Bft. km/h Grad Sektor
Fr, 07.10. 7:30 7 2 7 150° SO
Fr, 07.10. 7:20 7 2 - 150° SO
Fr, 07.10. 7:10 7 2 - 150° SO
Fr, 07.10. 7:00 7 2 11 160° S
Fr, 07.10. 6:50 7 2 - 160° S
Fr, 07.10. 6:40 7 2 - 150° SO
Fr, 07.10. 6:30 6 1 11 150° SO
Fr, 07.10. 6:00 7 2 11 150° SO
Fr, 07.10. 5:30 6 1 7 150° SO
Fr, 07.10. 5:00 7 2 11 160° S
Fr, 07.10. 4:30 4 1 4 180° S
Ortszeit Untergrenze Bedeckung Gattung
total tief tief mittel hoch
Fr, 07.10. 2:00 450 m 6/8 6/8 - - -
Do, 06.10. 20:00 1140 m 6/8 6/8 - - -
Do, 06.10. 14:00 - 0/8 0/8 - - -
Do, 06.10. 8:00 - 0/8 0/8 - - -
Do, 06.10. 2:00 9000 m 6/8 0/8 - - -
Mi, 05.10. 20:00 9000 m 6/8 0/8 - - -
Mi, 05.10. 14:00 9000 m 4/8 0/8 - - -
Mi, 05.10. 8:00 - 0/8 0/8 - - -
Ortszeit Bedeckungsgrad in Achtel und Wolkenuntergrenze
Fr, 07.10. 7:30 8(60m)
Fr, 07.10. 7:20 8(60m)
Fr, 07.10. 7:10 8
Fr, 07.10. 7:00 8(120m)
Fr, 07.10. 6:50 8(120m)
Fr, 07.10. 6:40 8
Fr, 07.10. 6:30 7(150m)
Fr, 07.10. 6:00 8(150m)
Fr, 07.10. 5:30 8(210m)
Fr, 07.10. 5:00 8(240m)
Fr, 07.10. 4:30 2(60m) 8(330m)
Ortszeit Stationsdruck (hPa) Tendenz (hPa in 3 Std.)
Fr, 07.10. 2:00 935 - 1,1
Do, 06.10. 20:00 936 + 0,5
Do, 06.10. 14:00 936 - 1,0
Do, 06.10. 8:00 937 + 1,4
Do, 06.10. 2:00 935 + 1,1
Mi, 05.10. 20:00 932 + 1,5
Mi, 05.10. 14:00 931 - 0,6
Mi, 05.10. 8:00 931 + 0,2
Ortszeit Stationsdruck (hPa) Tendenz (hPa in 3 Std.)
Fr, 07.10. 7:30 933 - 0,9
Fr, 07.10. 7:20 933 keine Meldung
Fr, 07.10. 7:10 933 keine Meldung
Fr, 07.10. 7:00 933 - 1,0
Fr, 07.10. 6:50 933 keine Meldung
Fr, 07.10. 6:40 933 keine Meldung
Fr, 07.10. 6:30 933 - 1,1
Fr, 07.10. 6:00 934 - 1,1
Fr, 07.10. 5:30 934 - 1,0
Fr, 07.10. 5:00 934 - 1,0
Fr, 07.10. 4:30 934 - 0,7
Ortszeit Schneehöhe (cm)
Fr, 07.10. 2:00 0
Do, 06.10. 20:00 0
Do, 06.10. 14:00 0
Do, 06.10. 8:00 0
Do, 06.10. 2:00 0
Mi, 05.10. 20:00 0
Mi, 05.10. 14:00 0
Mi, 05.10. 8:00 0
Ortszeit Schneehöhe (cm)
Fr, 07.10. 7:30 0
Fr, 07.10. 7:20 0
Fr, 07.10. 7:10 0
Fr, 07.10. 7:00 0
Fr, 07.10. 6:50 0
Fr, 07.10. 6:40 0
Fr, 07.10. 6:30 0
Fr, 07.10. 6:00 0
Fr, 07.10. 5:30 0
Fr, 07.10. 5:00 0
Fr, 07.10. 4:30 0
Link zu dieser Seite / Seite empfehlen

Das Wetter in ...